DAL2523 KATL-KJFK
Flight info
| Callsign | DAL2523 |
|---|---|
| Flight time | N/A |
| Altitude | 35000 |
| Route | PHIIL3 HRTWL Q64 SAWED Q108 SIE CAMRN5 |
| Aircraft | A321/M-SDE3FGHIRWY/LB1 |
Departure
| Time | 2026-05-05 13:17 |
|---|---|
| Airport | Hartsfield Jackson Atlanta International Airport (KATL) |
Arrival
| Time | N/A |
|---|---|
| Airport | John F. Kennedy International Airport (KJFK) |
| Time | Latitude | Longitude | Altitude | Speed | Heading |
|---|---|---|---|---|---|
| 2026-05-05 13:00 | 33.63842 | -84.43867 | 1006 ft | 0 kts | 270° |
| 2026-05-05 13:06 | 33.63842 | -84.43849 | 1006 ft | 3 kts | 270° |
| 2026-05-05 13:06 | 33.63842 | -84.43820 | 1006 ft | 3 kts | 266° |
| 2026-05-05 13:06 | 33.63846 | -84.43793 | 1006 ft | 3 kts | 242° |
| 2026-05-05 13:07 | 33.63852 | -84.43783 | 1006 ft | 0 kts | 225° |
| 2026-05-05 13:09 | 33.63851 | -84.43783 | 1006 ft | 0 kts | 225° |
| 2026-05-05 13:09 | 33.63832 | -84.43786 | 1006 ft | 6 kts | 182° |
| 2026-05-05 13:09 | 33.63766 | -84.43787 | 1006 ft | 13 kts | 180° |
| 2026-05-05 13:10 | 33.63679 | -84.43768 | 1006 ft | 13 kts | 137° |
| 2026-05-05 13:10 | 33.63663 | -84.43660 | 1006 ft | 14 kts | 90° |
| 2026-05-05 13:10 | 33.63663 | -84.43540 | 1006 ft | 15 kts | 89° |
| 2026-05-05 13:10 | 33.63664 | -84.43411 | 1006 ft | 16 kts | 90° |
| 2026-05-05 13:11 | 33.63664 | -84.43274 | 1006 ft | 17 kts | 90° |
| 2026-05-05 13:11 | 33.63663 | -84.43132 | 1006 ft | 17 kts | 90° |
| 2026-05-05 13:11 | 33.63664 | -84.42982 | 1006 ft | 18 kts | 89° |
| 2026-05-05 13:11 | 33.63663 | -84.42824 | 1006 ft | 19 kts | 90° |
| 2026-05-05 13:12 | 33.63655 | -84.42685 | 1007 ft | 17 kts | 91° |
| 2026-05-05 13:12 | 33.63654 | -84.42541 | 1007 ft | 18 kts | 90° |
| 2026-05-05 13:12 | 33.63654 | -84.42390 | 1007 ft | 19 kts | 90° |
| 2026-05-05 13:12 | 33.63655 | -84.42247 | 1007 ft | 15 kts | 90° |
| 2026-05-05 13:13 | 33.63622 | -84.42135 | 1007 ft | 15 kts | 121° |
| 2026-05-05 13:13 | 33.63582 | -84.42020 | 1007 ft | 16 kts | 89° |
| 2026-05-05 13:13 | 33.63581 | -84.41884 | 1006 ft | 17 kts | 90° |
| 2026-05-05 13:13 | 33.63581 | -84.41741 | 1006 ft | 18 kts | 90° |
| 2026-05-05 13:14 | 33.63580 | -84.41590 | 1006 ft | 16 kts | 90° |
| 2026-05-05 13:14 | 33.63580 | -84.41453 | 1005 ft | 17 kts | 90° |
| 2026-05-05 13:14 | 33.63581 | -84.41308 | 1005 ft | 18 kts | 90° |
| 2026-05-05 13:14 | 33.63581 | -84.41157 | 1006 ft | 18 kts | 90° |
| 2026-05-05 13:15 | 33.63581 | -84.41025 | 1006 ft | 11 kts | 90° |
| 2026-05-05 13:15 | 33.63579 | -84.40943 | 1006 ft | 8 kts | 102° |
| 2026-05-05 13:15 | 33.63537 | -84.40912 | 1007 ft | 7 kts | 169° |
| 2026-05-05 13:15 | 33.63488 | -84.40912 | 1007 ft | 7 kts | 181° |
| 2026-05-05 13:16 | 33.63472 | -84.40952 | 1007 ft | 7 kts | 266° |
| 2026-05-05 13:16 | 33.63470 | -84.41200 | 1005 ft | 69 kts | 270° |
| 2026-05-05 13:16 | 33.63469 | -84.42101 | 1007 ft | 143 kts | 270° |
| 2026-05-05 13:16 | 33.63466 | -84.43494 | 1188 ft | 182 kts | 269° |
| 2026-05-05 13:17 | 33.63464 | -84.44963 | 2204 ft | 172 kts | 268° |
| 2026-05-05 13:17 | 33.63468 | -84.46396 | 3032 ft | 178 kts | 266° |
| 2026-05-05 13:17 | 33.63330 | -84.47917 | 3474 ft | 187 kts | 246° |
| 2026-05-05 13:17 | 33.62697 | -84.49350 | 3618 ft | 203 kts | 239° |
| 2026-05-05 13:18 | 33.61994 | -84.50918 | 3740 ft | 224 kts | 240° |
| 2026-05-05 13:18 | 33.61245 | -84.52656 | 3968 ft | 246 kts | 241° |
| 2026-05-05 13:18 | 33.60454 | -84.54525 | 4598 ft | 254 kts | 241° |
| 2026-05-05 13:18 | 33.59647 | -84.56426 | 5335 ft | 257 kts | 238° |
| 2026-05-05 13:19 | 33.58439 | -84.57981 | 5998 ft | 259 kts | 208° |
| 2026-05-05 13:19 | 33.56691 | -84.58503 | 6631 ft | 265 kts | 182° |
| 2026-05-05 13:19 | 33.54838 | -84.58512 | 7327 ft | 267 kts | 181° |
| 2026-05-05 13:19 | 33.52986 | -84.58498 | 7997 ft | 271 kts | 181° |
| 2026-05-05 13:20 | 33.51082 | -84.58480 | 8654 ft | 276 kts | 181° |
| 2026-05-05 13:20 | 33.49147 | -84.58413 | 9291 ft | 281 kts | 173° |
| 2026-05-05 13:20 | 33.47318 | -84.57543 | 9898 ft | 291 kts | 144° |
| 2026-05-05 13:20 | 33.46024 | -84.55662 | 10442 ft | 299 kts | 114° |
| 2026-05-05 13:21 | 33.45593 | -84.53181 | 10743 ft | 317 kts | 93° |
| 2026-05-05 13:21 | 33.45542 | -84.51393 | 10826 ft | 331 kts | 91° |
| 2026-05-05 13:21 | 33.45533 | -84.48552 | 10950 ft | 352 kts | 90° |
| 2026-05-05 13:21 | 33.45561 | -84.45534 | 11079 ft | 371 kts | 90° |
| 2026-05-05 13:22 | 33.45589 | -84.42403 | 11482 ft | 380 kts | 90° |
| 2026-05-05 13:22 | 33.45604 | -84.39221 | 12044 ft | 384 kts | 90° |
| 2026-05-05 13:22 | 33.45606 | -84.36010 | 12655 ft | 388 kts | 89° |
| 2026-05-05 13:22 | 33.45877 | -84.32778 | 13218 ft | 392 kts | 78° |
| 2026-05-05 13:23 | 33.46602 | -84.29615 | 13771 ft | 396 kts | 72° |
| 2026-05-05 13:23 | 33.47415 | -84.26446 | 14284 ft | 400 kts | 72° |
| 2026-05-05 13:23 | 33.48220 | -84.23279 | 14764 ft | 403 kts | 72° |
| 2026-05-05 13:23 | 33.49049 | -84.20003 | 15253 ft | 407 kts | 72° |
| 2026-05-05 13:24 | 33.49862 | -84.16785 | 15722 ft | 411 kts | 72° |
| 2026-05-05 13:24 | 33.50693 | -84.13494 | 16189 ft | 414 kts | 72° |
| 2026-05-05 13:24 | 33.51533 | -84.10167 | 16654 ft | 418 kts | 71° |
| 2026-05-05 13:24 | 33.52378 | -84.06818 | 17093 ft | 421 kts | 71° |
| 2026-05-05 13:25 | 33.53228 | -84.03443 | 17553 ft | 425 kts | 71° |
| 2026-05-05 13:25 | 33.54083 | -84.00035 | 18016 ft | 428 kts | 71° |
| 2026-05-05 13:25 | 33.54944 | -83.96607 | 18453 ft | 432 kts | 71° |
| 2026-05-05 13:25 | 33.55812 | -83.93147 | 18833 ft | 435 kts | 71° |
| 2026-05-05 13:26 | 33.56685 | -83.89657 | 19215 ft | 438 kts | 71° |
| 2026-05-05 13:26 | 33.57564 | -83.86147 | 19619 ft | 440 kts | 71° |
| 2026-05-05 13:26 | 33.58496 | -83.82642 | 19994 ft | 442 kts | 66° |
| 2026-05-05 13:26 | 33.59729 | -83.79271 | 20367 ft | 443 kts | 62° |
| 2026-05-05 13:27 | 33.60999 | -83.75934 | 20738 ft | 446 kts | 62° |
| 2026-05-05 13:27 | 33.62290 | -83.72539 | 21115 ft | 449 kts | 62° |
| 2026-05-05 13:27 | 33.63588 | -83.69120 | 21486 ft | 451 kts | 62° |
| 2026-05-05 13:27 | 33.64890 | -83.65669 | 21863 ft | 454 kts | 63° |
| 2026-05-05 13:28 | 33.65947 | -83.62056 | 22221 ft | 461 kts | 72° |
| 2026-05-05 13:28 | 33.66675 | -83.58271 | 22578 ft | 465 kts | 74° |
| 2026-05-05 13:28 | 33.67382 | -83.54470 | 22941 ft | 468 kts | 74° |
| 2026-05-05 13:28 | 33.68095 | -83.50645 | 23319 ft | 470 kts | 74° |
| 2026-05-05 13:29 | 33.68799 | -83.46847 | 23678 ft | 473 kts | 74° |
| 2026-05-05 13:29 | 33.69516 | -83.42982 | 23980 ft | 475 kts | 74° |
| 2026-05-05 13:29 | 33.70239 | -83.39102 | 24272 ft | 478 kts | 74° |
| 2026-05-05 13:29 | 33.70971 | -83.35195 | 24560 ft | 480 kts | 73° |
| 2026-05-05 13:30 | 33.71705 | -83.31270 | 24840 ft | 483 kts | 73° |
| 2026-05-05 13:30 | 33.72439 | -83.27322 | 25123 ft | 485 kts | 73° |
| 2026-05-05 13:30 | 33.73173 | -83.23348 | 25403 ft | 488 kts | 73° |
| 2026-05-05 13:30 | 33.73907 | -83.19359 | 25681 ft | 490 kts | 73° |
| 2026-05-05 13:31 | 33.74853 | -83.15431 | 25956 ft | 487 kts | 64° |
| 2026-05-05 13:31 | 33.76228 | -83.11737 | 26239 ft | 483 kts | 56° |
| 2026-05-05 13:31 | 33.77954 | -83.08290 | 26523 ft | 481 kts | 52° |
| 2026-05-05 13:31 | 33.79733 | -83.04875 | 26806 ft | 483 kts | 52° |
| 2026-05-05 13:32 | 33.81515 | -83.01445 | 27083 ft | 485 kts | 52° |
| 2026-05-05 13:32 | 33.83298 | -82.97998 | 27362 ft | 487 kts | 52° |
| 2026-05-05 13:32 | 33.85084 | -82.94531 | 27630 ft | 489 kts | 52° |
| 2026-05-05 13:32 | 33.86879 | -82.91044 | 27888 ft | 490 kts | 52° |
| 2026-05-05 13:33 | 33.88654 | -82.87594 | 28149 ft | 492 kts | 52° |
| 2026-05-05 13:33 | 33.90455 | -82.84090 | 28511 ft | 491 kts | 52° |
| 2026-05-05 13:33 | 33.92247 | -82.80598 | 28874 ft | 490 kts | 51° |
| 2026-05-05 13:33 | 33.94038 | -82.77110 | 29232 ft | 489 kts | 51° |
| 2026-05-05 13:34 | 33.95825 | -82.73630 | 29586 ft | 489 kts | 51° |
| 2026-05-05 13:34 | 33.97607 | -82.70147 | 29936 ft | 488 kts | 51° |
| 2026-05-05 13:34 | 33.99386 | -82.66665 | 30257 ft | 487 kts | 51° |
| 2026-05-05 13:34 | 34.01153 | -82.63183 | 30578 ft | 486 kts | 50° |
| 2026-05-05 13:35 | 34.02912 | -82.59699 | 30894 ft | 485 kts | 50° |
| 2026-05-05 13:35 | 34.04659 | -82.56234 | 31215 ft | 483 kts | 50° |
| 2026-05-05 13:35 | 34.06401 | -82.52778 | 31556 ft | 481 kts | 49° |
| 2026-05-05 13:35 | 34.08134 | -82.49335 | 31901 ft | 479 kts | 49° |
| 2026-05-05 13:36 | 34.09861 | -82.45906 | 32244 ft | 477 kts | 48° |
| 2026-05-05 13:36 | 34.11557 | -82.42539 | 32580 ft | 475 kts | 48° |
| 2026-05-05 13:36 | 34.13288 | -82.39097 | 32951 ft | 473 kts | 48° |
| 2026-05-05 13:36 | 34.14991 | -82.35705 | 33298 ft | 471 kts | 47° |
| 2026-05-05 13:37 | 34.16667 | -82.32368 | 33637 ft | 469 kts | 47° |
| 2026-05-05 13:37 | 34.18354 | -82.29006 | 33998 ft | 467 kts | 47° |
| 2026-05-05 13:37 | 34.20034 | -82.25656 | 34302 ft | 465 kts | 46° |
| 2026-05-05 13:37 | 34.21704 | -82.22317 | 34582 ft | 463 kts | 46° |
| 2026-05-05 13:38 | 34.23366 | -82.18991 | 34845 ft | 462 kts | 47° |
| 2026-05-05 13:38 | 34.25031 | -82.15660 | 35044 ft | 463 kts | 47° |
| 2026-05-05 13:38 | 34.28364 | -82.09017 | 35125 ft | 460 kts | 46° |
| 2026-05-05 13:39 | 34.31699 | -82.02412 | 35123 ft | 459 kts | 46° |
| 2026-05-05 13:39 | 34.35009 | -81.95849 | 35113 ft | 459 kts | 46° |
| 2026-05-05 13:40 | 34.38322 | -81.89243 | 35121 ft | 459 kts | 47° |
| 2026-05-05 13:40 | 34.41629 | -81.82610 | 35129 ft | 459 kts | 47° |
| 2026-05-05 13:41 | 34.44936 | -81.75979 | 35127 ft | 459 kts | 47° |
| 2026-05-05 13:41 | 34.48245 | -81.69352 | 35114 ft | 460 kts | 47° |
| 2026-05-05 13:42 | 34.51559 | -81.62714 | 35117 ft | 461 kts | 48° |
| 2026-05-05 13:42 | 34.54867 | -81.56053 | 35081 ft | 462 kts | 48° |
| 2026-05-05 13:43 | 34.58174 | -81.49372 | 35082 ft | 462 kts | 48° |
| 2026-05-05 13:43 | 34.61481 | -81.42672 | 35109 ft | 462 kts | 48° |
| 2026-05-05 13:44 | 34.64788 | -81.35974 | 35121 ft | 463 kts | 48° |
| 2026-05-05 13:44 | 34.68100 | -81.29268 | 35166 ft | 463 kts | 48° |
| 2026-05-05 13:45 | 34.71404 | -81.22547 | 35160 ft | 463 kts | 49° |
| 2026-05-05 13:45 | 34.74707 | -81.15824 | 35157 ft | 463 kts | 49° |
| 2026-05-05 13:46 | 34.77984 | -81.09129 | 35151 ft | 463 kts | 49° |
| 2026-05-05 13:46 | 34.81005 | -81.02143 | 35141 ft | 472 kts | 56° |
| 2026-05-05 13:47 | 34.83698 | -80.94847 | 35131 ft | 472 kts | 56° |
| 2026-05-05 13:47 | 34.86383 | -80.87545 | 35156 ft | 472 kts | 57° |
| 2026-05-05 13:48 | 34.89064 | -80.80246 | 35142 ft | 472 kts | 57° |
| 2026-05-05 13:48 | 34.91745 | -80.72947 | 35148 ft | 472 kts | 57° |
| 2026-05-05 13:49 | 34.94421 | -80.65653 | 35135 ft | 471 kts | 57° |
| 2026-05-05 13:49 | 34.97085 | -80.58349 | 35135 ft | 471 kts | 57° |
| 2026-05-05 13:50 | 34.99747 | -80.51040 | 35152 ft | 471 kts | 58° |
| 2026-05-05 13:50 | 35.02424 | -80.43712 | 35113 ft | 473 kts | 58° |
| 2026-05-05 13:51 | 35.05091 | -80.36356 | 35099 ft | 474 kts | 58° |
| 2026-05-05 13:51 | 35.07740 | -80.29036 | 35107 ft | 475 kts | 58° |
| 2026-05-05 13:52 | 35.10406 | -80.21654 | 35113 ft | 475 kts | 58° |
| 2026-05-05 13:52 | 35.13066 | -80.14257 | 35148 ft | 475 kts | 59° |
| 2026-05-05 13:53 | 35.15719 | -80.06853 | 35135 ft | 475 kts | 59° |
| 2026-05-05 13:53 | 35.18379 | -79.99460 | 35131 ft | 475 kts | 59° |
| 2026-05-05 13:54 | 35.21043 | -79.92059 | 35127 ft | 475 kts | 59° |
| 2026-05-05 13:54 | 35.23696 | -79.84659 | 35121 ft | 475 kts | 59° |
| 2026-05-05 13:55 | 35.26323 | -79.77291 | 35118 ft | 475 kts | 61° |
| 2026-05-05 13:55 | 35.28962 | -79.69872 | 35117 ft | 475 kts | 61° |
| 2026-05-05 13:56 | 35.31592 | -79.62465 | 35156 ft | 474 kts | 61° |
| 2026-05-05 13:56 | 35.34210 | -79.55044 | 35151 ft | 474 kts | 61° |
| 2026-05-05 13:57 | 35.36833 | -79.47625 | 35143 ft | 474 kts | 61° |
| 2026-05-05 13:57 | 35.39455 | -79.40208 | 35144 ft | 474 kts | 62° |
| 2026-05-05 13:58 | 35.42081 | -79.32784 | 35144 ft | 474 kts | 62° |
| 2026-05-05 13:58 | 35.44684 | -79.25366 | 35135 ft | 473 kts | 62° |
| 2026-05-05 13:59 | 35.48566 | -79.14227 | 35137 ft | 473 kts | 62° |
| 2026-05-05 14:00 | 35.52024 | -79.04358 | 35139 ft | 473 kts | 63° |
| 2026-05-05 14:00 | 35.55054 | -78.95672 | 35131 ft | 473 kts | 63° |
| 2026-05-05 14:01 | 35.57616 | -78.88276 | 35130 ft | 473 kts | 63° |
| 2026-05-05 14:01 | 35.60183 | -78.80825 | 35123 ft | 473 kts | 63° |
| 2026-05-05 14:02 | 35.62753 | -78.73375 | 35127 ft | 473 kts | 63° |
| 2026-05-05 14:02 | 35.65323 | -78.65927 | 35117 ft | 473 kts | 64° |
| 2026-05-05 14:03 | 35.67889 | -78.58466 | 35113 ft | 474 kts | 64° |
| 2026-05-05 14:03 | 35.70451 | -78.50986 | 35133 ft | 475 kts | 64° |
| 2026-05-05 14:04 | 35.73005 | -78.43489 | 35132 ft | 475 kts | 64° |
| 2026-05-05 14:04 | 35.75551 | -78.35993 | 35128 ft | 474 kts | 64° |
| 2026-05-05 14:05 | 35.78105 | -78.28500 | 35125 ft | 474 kts | 64° |
| 2026-05-05 14:05 | 35.80658 | -78.21000 | 35125 ft | 474 kts | 64° |
| 2026-05-05 14:06 | 35.83205 | -78.13501 | 35123 ft | 474 kts | 64° |
| 2026-05-05 14:06 | 35.85734 | -78.05988 | 35127 ft | 474 kts | 64° |
| 2026-05-05 14:07 | 35.87833 | -77.99744 | 35121 ft | 474 kts | 64° |
| 2026-05-05 14:07 | 35.90359 | -77.92232 | 35133 ft | 474 kts | 65° |
| 2026-05-05 14:08 | 35.93296 | -77.83480 | 35121 ft | 475 kts | 65° |